createdAt,value
2019-02-02T00:02:06.273Z,24.97
2019-02-02T00:04:36.351Z,26.70
2019-02-02T00:07:05.449Z,23.13
2019-02-02T00:09:34.444Z,25.37
2019-02-02T00:12:03.347Z,22.13
2019-02-02T00:14:32.463Z,23.50
2019-02-02T00:17:01.713Z,27.90
2019-02-02T00:19:30.577Z,25.10
2019-02-02T00:22:01.527Z,24.27
2019-02-02T00:24:30.425Z,25.67
2019-02-02T00:26:59.222Z,25.57
2019-02-02T00:29:28.782Z,27.23
2019-02-02T00:31:57.791Z,23.63
2019-02-02T00:34:28.182Z,24.60
2019-02-02T00:36:59.250Z,25.67
2019-02-02T00:39:28.975Z,25.30
2019-02-02T00:41:58.058Z,23.60
2019-02-02T00:44:27.167Z,26.77
2019-02-02T00:46:56.279Z,26.70
2019-02-02T00:49:25.406Z,27.57
2019-02-02T00:51:54.193Z,28.63
2019-02-02T00:54:23.138Z,28.30
2019-02-02T00:56:51.922Z,26.97
2019-02-02T00:59:20.778Z,26.53
2019-02-02T01:01:50.029Z,23.53
2019-02-02T01:04:18.963Z,25.00
2019-02-02T01:06:47.787Z,25.00
2019-02-02T01:09:22.418Z,23.63
2019-02-02T01:11:51.781Z,25.33
2019-02-02T01:14:20.926Z,26.63
2019-02-02T01:16:49.818Z,28.27
2019-02-02T01:19:18.614Z,26.02
2019-02-02T01:21:47.545Z,25.23
2019-02-02T01:24:16.501Z,27.00
2019-02-02T01:26:45.279Z,24.70
2019-02-02T01:29:14.346Z,25.40
2019-02-02T01:31:43.194Z,27.67
2019-02-02T01:34:12.186Z,26.03
2019-02-02T01:36:41.136Z,27.33
2019-02-02T01:39:09.930Z,30.10
2019-02-02T01:41:39.071Z,28.73
2019-02-02T01:44:08.024Z,30.73
2019-02-02T01:46:36.741Z,26.63
2019-02-02T01:49:05.709Z,26.27
2019-02-02T01:51:34.531Z,28.07
2019-02-02T01:54:03.452Z,28.27
2019-02-02T01:56:32.433Z,28.53
2019-02-02T01:59:01.815Z,29.27
2019-02-02T02:01:30.750Z,32.00
2019-02-02T02:04:00.299Z,30.13
2019-02-02T02:06:30.230Z,32.97
2019-02-02T02:08:59.782Z,30.03
2019-02-02T02:11:28.899Z,32.47
2019-02-02T02:13:57.658Z,30.83
2019-02-02T02:16:26.575Z,31.37
2019-02-02T02:18:55.436Z,33.00
2019-02-02T02:21:24.355Z,32.77
2019-02-02T02:23:53.231Z,31.10
2019-02-02T02:26:22.059Z,29.20
2019-02-02T02:28:50.864Z,33.40
2019-02-02T02:31:20.120Z,35.87
2019-02-02T02:33:49.149Z,30.17
2019-02-02T02:36:18.194Z,29.53
2019-02-02T02:38:46.985Z,31.17
2019-02-02T02:41:15.770Z,31.37
2019-02-02T02:43:44.602Z,29.03
2019-02-02T02:46:13.485Z,31.40
2019-02-02T02:48:42.313Z,31.53
2019-02-02T02:51:11.495Z,29.90
2019-02-02T02:53:40.387Z,35.37
2019-02-02T02:56:09.170Z,28.70
2019-02-02T02:58:41.634Z,28.30
2019-02-02T03:01:08.538Z,30.77
2019-02-02T03:03:37.664Z,32.77
2019-02-02T03:06:08.268Z,30.53
2019-02-02T03:08:37.650Z,30.73
2019-02-02T03:11:06.448Z,29.60
2019-02-02T03:13:35.289Z,33.93
2019-02-02T03:16:04.068Z,29.23
2019-02-02T03:18:32.900Z,32.90
2019-02-02T03:21:08.013Z,30.13
2019-02-02T03:23:37.027Z,30.20
2019-02-02T03:26:07.532Z,30.20
2019-02-02T03:28:36.367Z,27.60
2019-02-02T03:31:05.485Z,28.30
2019-02-02T03:33:34.485Z,28.03
2019-02-02T03:36:04.012Z,32.33
2019-02-02T03:38:32.838Z,30.27
2019-02-02T03:41:02.101Z,27.97
2019-02-02T03:43:30.900Z,29.07
2019-02-02T03:46:00.015Z,28.87
2019-02-02T03:48:28.800Z,28.10
2019-02-02T03:50:57.629Z,31.70
2019-02-02T03:53:27.421Z,26.50
2019-02-02T03:55:56.280Z,27.53
2019-02-02T03:58:25.285Z,27.87
2019-02-02T04:00:54.244Z,26.30
2019-02-02T04:03:23.064Z,29.47
2019-02-02T04:05:52.328Z,29.17
2019-02-02T04:08:21.216Z,30.40
2019-02-02T04:10:50.120Z,30.60
2019-02-02T04:13:19.106Z,29.67
2019-02-02T04:15:48.122Z,30.73
2019-02-02T04:18:17.108Z,30.90
2019-02-02T04:20:45.919Z,28.40
2019-02-02T04:23:15.173Z,24.23
2019-02-02T04:25:43.968Z,27.30
2019-02-02T04:28:14.902Z,27.33
2019-02-02T04:30:43.797Z,28.63
2019-02-02T04:33:13.217Z,30.83
2019-02-02T04:35:42.014Z,26.77
2019-02-02T04:38:11.051Z,28.93
2019-02-02T04:40:39.974Z,28.40
2019-02-02T04:43:08.814Z,26.90
2019-02-02T04:45:37.664Z,30.63
2019-02-02T04:48:06.449Z,27.70
2019-02-02T04:50:35.255Z,30.03
2019-02-02T04:53:04.144Z,28.30
2019-02-02T04:55:32.973Z,28.30
2019-02-02T04:58:03.560Z,26.30
2019-02-02T05:00:32.333Z,27.33
2019-02-02T05:03:01.156Z,27.33
2019-02-02T05:05:30.024Z,26.73
2019-02-02T05:07:59.544Z,26.70
2019-02-02T05:10:28.850Z,25.53
2019-02-02T05:12:57.839Z,23.43
2019-02-02T05:15:26.854Z,25.97
2019-02-02T05:17:55.609Z,23.37
2019-02-02T05:20:24.605Z,26.60
2019-02-02T05:22:53.413Z,27.23
2019-02-02T05:25:22.254Z,27.57
2019-02-02T05:27:51.011Z,29.50
2019-02-02T05:30:21.515Z,28.33
2019-02-02T05:32:50.383Z,26.23
2019-02-02T05:35:19.672Z,28.73
2019-02-02T05:37:48.660Z,28.57
2019-02-02T05:40:18.092Z,27.87
2019-02-02T05:42:46.916Z,27.10
2019-02-02T05:45:16.702Z,27.47
2019-02-02T05:47:45.476Z,28.57
2019-02-02T05:50:15.538Z,27.53
2019-02-02T05:52:44.430Z,26.57
2019-02-02T05:55:13.671Z,30.40
2019-02-02T05:57:42.636Z,29.60
2019-02-02T06:00:15.330Z,27.90
2019-02-02T06:02:44.119Z,29.60
2019-02-02T06:05:12.911Z,26.47
2019-02-02T06:07:43.025Z,26.53
2019-02-02T06:10:15.536Z,26.37
2019-02-02T06:12:44.355Z,28.00
2019-02-02T06:15:13.512Z,28.80
2019-02-02T06:17:42.380Z,27.70
2019-02-02T06:20:12.551Z,27.23
2019-02-02T06:22:41.804Z,28.67
2019-02-02T06:25:10.994Z,31.77
2019-02-02T06:27:39.942Z,31.10
2019-02-02T06:30:11.047Z,30.57
2019-02-02T06:32:39.841Z,30.47
2019-02-02T06:35:09.813Z,31.00
2019-02-02T06:37:38.707Z,36.20
2019-02-02T06:40:08.217Z,30.80
2019-02-02T06:42:37.436Z,31.17
2019-02-02T06:45:06.958Z,32.23
2019-02-02T06:47:35.919Z,34.30
2019-02-02T06:50:06.000Z,34.10
2019-02-02T06:52:34.792Z,35.57
2019-02-02T06:55:03.855Z,34.07
2019-02-02T06:57:32.811Z,38.60
2019-02-02T07:00:01.823Z,36.77
2019-02-02T07:02:30.705Z,33.90
2019-02-02T07:04:59.791Z,37.30
2019-02-02T07:07:28.700Z,38.90
2019-02-02T07:09:57.793Z,35.83
2019-02-02T07:12:26.582Z,33.53
2019-02-02T07:14:55.586Z,34.47
2019-02-02T07:17:24.558Z,35.17
2019-02-02T07:19:53.438Z,39.00
2019-02-02T07:22:22.268Z,35.57
2019-02-02T07:24:51.642Z,41.23
2019-02-02T07:27:20.460Z,39.07
2019-02-02T07:29:49.560Z,39.83
2019-02-02T07:32:18.767Z,38.87
2019-02-02T07:34:49.404Z,38.20
2019-02-02T07:37:18.320Z,36.13
2019-02-02T07:39:47.319Z,43.10
2019-02-02T07:42:17.288Z,40.00
2019-02-02T07:44:46.374Z,40.53
2019-02-02T07:47:15.183Z,39.50
2019-02-02T07:49:44.413Z,41.57
2019-02-02T07:52:14.228Z,45.60
2019-02-02T07:54:43.186Z,44.53
2019-02-02T07:57:12.166Z,42.83
2019-02-02T07:59:41.044Z,44.03
2019-02-02T08:02:10.088Z,43.23
2019-02-02T08:04:39.547Z,40.73
2019-02-02T08:07:08.751Z,41.77
2019-02-02T08:09:37.810Z,45.23
2019-02-02T08:12:06.688Z,43.00
2019-02-02T08:14:35.611Z,41.97
2019-02-02T08:17:04.521Z,44.73
2019-02-02T08:19:33.707Z,46.53
2019-02-02T08:22:02.478Z,43.60
2019-02-02T08:24:31.443Z,49.53
2019-02-02T08:27:00.321Z,43.07
2019-02-02T08:29:29.277Z,48.43
2019-02-02T08:31:58.154Z,48.77
2019-02-02T08:34:27.080Z,46.00
2019-02-02T08:36:55.885Z,50.40
2019-02-02T08:39:29.293Z,48.50
2019-02-02T08:41:55.815Z,49.87
2019-02-02T08:44:24.626Z,50.27
2019-02-02T08:46:53.578Z,54.30
2019-02-02T08:49:22.415Z,49.53
2019-02-02T08:51:51.520Z,50.87
2019-02-02T08:54:21.155Z,49.70
2019-02-02T08:56:50.254Z,49.17
2019-02-02T08:59:19.351Z,54.43
2019-02-02T09:01:48.440Z,50.07
2019-02-02T09:04:17.889Z,51.87
2019-02-02T09:06:47.085Z,52.13
2019-02-02T09:09:15.907Z,52.60
2019-02-02T09:11:45.303Z,48.87
2019-02-02T09:14:14.292Z,52.87
2019-02-02T09:16:43.184Z,51.87
2019-02-02T09:19:12.013Z,49.03
2019-02-02T09:21:40.857Z,53.90
2019-02-02T09:24:09.767Z,47.73
2019-02-02T09:26:38.723Z,49.20
2019-02-02T09:29:10.419Z,55.27
2019-02-02T09:31:38.286Z,56.20
2019-02-02T09:34:07.166Z,51.23
2019-02-02T09:36:36.020Z,55.20
2019-02-02T09:39:06.814Z,51.33
2019-02-02T09:41:35.810Z,50.00
2019-02-02T09:44:05.203Z,50.10
2019-02-02T09:46:34.095Z,50.63
2019-02-02T09:49:03.252Z,52.80
2019-02-02T09:51:32.424Z,50.13
2019-02-02T09:54:02.054Z,48.90
2019-02-02T09:56:31.412Z,52.77
2019-02-02T09:59:00.303Z,55.03
2019-02-02T10:01:29.378Z,54.10
2019-02-02T10:03:58.270Z,51.80
2019-02-02T10:06:27.298Z,52.33
2019-02-02T10:08:56.137Z,53.80
2019-02-02T10:11:25.838Z,53.80
2019-02-02T10:13:54.690Z,54.73
2019-02-02T10:16:23.563Z,52.17
2019-02-02T10:18:53.401Z,55.20
2019-02-02T10:21:22.227Z,57.27
2019-02-02T10:23:51.064Z,54.50
2019-02-02T10:26:20.177Z,54.97
2019-02-02T10:28:49.359Z,56.60
2019-02-02T10:31:18.459Z,54.40
2019-02-02T10:33:47.454Z,58.53
2019-02-02T10:36:16.286Z,56.07
2019-02-02T10:38:45.211Z,52.67
2019-02-02T10:41:14.034Z,61.37
2019-02-02T10:43:42.968Z,56.33
2019-02-02T10:46:12.016Z,60.30
2019-02-02T10:48:41.662Z,57.87
2019-02-02T10:51:10.637Z,60.73
2019-02-02T10:53:39.463Z,55.73
2019-02-02T10:56:08.295Z,54.40
2019-02-02T10:58:37.154Z,56.67
2019-02-02T11:01:12.658Z,54.20
2019-02-02T11:03:41.429Z,59.33
2019-02-02T11:06:10.379Z,55.57
2019-02-02T11:08:39.226Z,58.60
2019-02-02T11:11:08.141Z,58.30
2019-02-02T11:13:36.986Z,60.70
2019-02-02T11:16:08.424Z,64.43
2019-02-02T11:18:36.444Z,60.73
2019-02-02T11:21:05.368Z,62.17
2019-02-02T11:23:34.382Z,59.07
2019-02-02T11:26:03.520Z,58.83
2019-02-02T11:28:32.508Z,62.37
2019-02-02T11:31:01.321Z,59.97
2019-02-02T11:33:30.488Z,56.33
2019-02-02T11:36:00.137Z,60.87
2019-02-02T11:38:28.936Z,59.80
2019-02-02T11:40:59.865Z,63.57
2019-02-02T11:43:28.815Z,62.53
2019-02-02T11:45:57.590Z,58.83
2019-02-02T11:48:26.419Z,58.37
2019-02-02T11:50:56.037Z,68.93
2019-02-02T11:53:24.877Z,56.67
2019-02-02T11:55:53.905Z,61.50
2019-02-02T11:58:22.796Z,61.20
2019-02-02T12:00:51.608Z,59.07
2019-02-02T12:03:20.558Z,53.53
2019-02-02T12:05:49.606Z,59.33
2019-02-02T12:08:18.765Z,63.00
2019-02-02T12:10:47.574Z,57.27
2019-02-02T12:13:16.405Z,58.47
2019-02-02T12:15:47.275Z,61.13
2019-02-02T12:18:16.331Z,57.23
2019-02-02T12:20:45.234Z,61.90
2019-02-02T12:23:14.025Z,58.73
2019-02-02T12:25:42.952Z,61.37
2019-02-02T12:28:11.778Z,53.07
2019-02-02T12:30:41.376Z,58.60
2019-02-02T12:33:10.198Z,61.37
2019-02-02T12:35:39.190Z,60.17
2019-02-02T12:38:08.774Z,61.30
2019-02-02T12:40:37.762Z,63.17
2019-02-02T12:43:06.566Z,59.00
2019-02-02T12:45:37.046Z,57.70
2019-02-02T12:48:05.982Z,65.70
2019-02-02T12:50:34.970Z,62.47
2019-02-02T12:53:04.128Z,66.07
2019-02-02T12:55:34.892Z,61.83
2019-02-02T12:58:04.669Z,62.33
2019-02-02T13:00:34.230Z,65.53
2019-02-02T13:03:03.118Z,64.20
2019-02-02T13:05:32.062Z,64.83
2019-02-02T13:08:01.003Z,62.63
2019-02-02T13:10:30.242Z,64.43
2019-02-02T13:12:59.011Z,63.13
2019-02-02T13:15:27.849Z,62.30
2019-02-02T13:17:56.685Z,65.90
2019-02-02T13:20:25.748Z,65.07
2019-02-02T13:22:54.534Z,63.70
2019-02-02T13:25:23.995Z,66.53
2019-02-02T13:27:53.121Z,62.60
2019-02-02T13:30:23.387Z,63.77
2019-02-02T13:32:52.559Z,67.23
2019-02-02T13:35:21.864Z,67.00
2019-02-02T13:37:50.801Z,64.07
2019-02-02T13:40:20.471Z,65.33
2019-02-02T13:42:49.322Z,65.43
2019-02-02T13:45:25.939Z,64.50
2019-02-02T13:47:54.759Z,63.47
2019-02-02T13:50:23.699Z,61.70
2019-02-02T13:52:52.848Z,71.37
2019-02-02T13:55:22.992Z,66.53
2019-02-02T13:57:51.801Z,70.50
2019-02-02T14:00:25.222Z,68.77
2019-02-02T14:03:02.494Z,67.20
2019-02-02T14:05:24.564Z,69.27
2019-02-02T14:07:53.689Z,70.47
2019-02-02T14:10:24.076Z,68.90
2019-02-02T14:12:53.072Z,72.50
2019-02-02T14:15:21.863Z,72.20
2019-02-02T14:17:50.836Z,66.05
2019-02-02T14:20:19.793Z,67.23
2019-02-02T14:22:49.426Z,70.37
2019-02-02T14:25:18.460Z,71.50
2019-02-02T14:27:47.522Z,68.73
2019-02-02T14:30:17.317Z,73.80
2019-02-02T14:32:46.228Z,67.87
2019-02-02T14:35:15.730Z,74.43
2019-02-02T14:37:44.578Z,68.67
2019-02-02T14:40:14.157Z,70.97
2019-02-02T14:42:42.970Z,73.77
2019-02-02T14:45:13.346Z,70.00
2019-02-02T14:47:42.325Z,76.27
2019-02-02T14:50:12.323Z,70.50
2019-02-02T14:52:41.144Z,74.47
2019-02-02T14:55:11.869Z,76.23
2019-02-02T14:57:41.104Z,79.67
2019-02-02T15:00:11.859Z,74.63
2019-02-02T15:02:41.472Z,72.10
2019-02-02T15:05:10.656Z,79.03
2019-02-02T15:07:39.458Z,75.03
2019-02-02T15:10:09.366Z,74.00
2019-02-02T15:12:38.259Z,79.30
2019-02-02T15:15:08.231Z,75.13
2019-02-02T15:17:37.052Z,76.57
2019-02-02T15:20:08.692Z,74.07
2019-02-02T15:22:37.807Z,80.07
2019-02-02T15:25:06.889Z,74.93
2019-02-02T15:27:35.705Z,78.33
2019-02-02T15:30:05.423Z,77.57
2019-02-02T15:32:34.242Z,82.00
2019-02-02T15:35:03.200Z,79.72
2019-02-02T15:37:32.141Z,75.40
2019-02-02T15:40:01.253Z,80.13
2019-02-02T15:42:30.329Z,83.10
2019-02-02T15:44:59.292Z,87.03
2019-02-02T15:47:28.315Z,79.93
2019-02-02T15:49:57.281Z,81.63
2019-02-02T15:52:26.207Z,80.77
2019-02-02T15:54:55.095Z,80.43
2019-02-02T15:57:24.128Z,80.30
2019-02-02T15:59:53.333Z,80.57
2019-02-02T16:02:22.259Z,79.47
2019-02-02T16:04:51.106Z,83.23
2019-02-02T16:07:20.147Z,82.70
2019-02-02T16:09:49.043Z,83.20
2019-02-02T16:12:18.127Z,83.27
2019-02-02T16:14:46.980Z,79.93
2019-02-02T16:17:15.905Z,83.10
2019-02-02T16:19:45.079Z,81.50
2019-02-02T16:22:14.394Z,86.37
2019-02-02T16:24:45.377Z,86.77
2019-02-02T16:27:14.560Z,82.87
2019-02-02T16:29:43.471Z,77.13
2019-02-02T16:32:12.788Z,82.13
2019-02-02T16:34:41.651Z,81.77
2019-02-02T16:37:10.505Z,81.80
2019-02-02T16:39:39.349Z,79.73
2019-02-02T16:42:08.192Z,89.20
2019-02-02T16:44:37.118Z,88.03
2019-02-02T16:47:07.997Z,82.60
2019-02-02T16:49:36.829Z,86.80
2019-02-02T16:52:05.965Z,89.63
2019-02-02T16:54:35.072Z,87.93
2019-02-02T16:57:04.108Z,83.60
2019-02-02T16:59:32.932Z,86.57
2019-02-02T17:02:01.923Z,86.57
2019-02-02T17:04:30.767Z,90.57
2019-02-02T17:06:59.818Z,89.03
2019-02-02T17:09:28.931Z,92.13
2019-02-02T17:11:57.788Z,86.50
2019-02-02T17:14:26.688Z,94.03
2019-02-02T17:16:55.472Z,85.87
2019-02-02T17:19:24.312Z,91.30
2019-02-02T17:21:53.118Z,85.63
2019-02-02T17:24:22.179Z,83.43
2019-02-02T17:26:51.806Z,87.40
2019-02-02T17:29:20.778Z,90.17
2019-02-02T17:31:49.605Z,89.33
2019-02-02T17:34:26.869Z,84.07
2019-02-02T17:36:49.337Z,89.93
2019-02-02T17:39:18.276Z,92.53
2019-02-02T17:41:47.280Z,87.77
2019-02-02T17:44:16.221Z,94.23
2019-02-02T17:46:45.063Z,86.33
2019-02-02T17:49:14.130Z,86.90
2019-02-02T17:51:42.906Z,95.30
2019-02-02T17:54:13.503Z,88.40
2019-02-02T17:56:42.519Z,92.17
2019-02-02T17:59:11.511Z,89.77
2019-02-02T18:01:40.739Z,90.33
2019-02-02T18:04:09.617Z,86.10
2019-02-02T18:06:38.671Z,85.10
2019-02-02T18:09:08.329Z,88.17
2019-02-02T18:11:37.259Z,85.13
2019-02-02T18:14:06.228Z,87.87
2019-02-02T18:16:35.333Z,88.67
2019-02-02T18:19:04.183Z,84.90
2019-02-02T18:21:33.059Z,82.33
2019-02-02T18:24:02.038Z,92.40
2019-02-02T18:26:30.913Z,85.10
2019-02-02T18:28:59.804Z,89.07
2019-02-02T18:31:28.880Z,85.07
2019-02-02T18:33:57.687Z,87.97
2019-02-02T18:36:26.578Z,88.87
2019-02-02T18:38:55.438Z,82.77
2019-02-02T18:41:25.020Z,85.63
2019-02-02T18:43:54.596Z,88.03
2019-02-02T18:46:23.537Z,82.83
2019-02-02T18:48:53.089Z,89.10
2019-02-02T18:51:21.992Z,89.80
2019-02-02T18:53:51.003Z,80.07
2019-02-02T18:56:20.125Z,91.30
2019-02-02T18:58:49.180Z,84.87
2019-02-02T19:01:18.399Z,86.97
2019-02-02T19:03:47.301Z,90.80
2019-02-02T19:06:16.260Z,84.90
2019-02-02T19:08:45.135Z,94.40
2019-02-02T19:11:14.129Z,83.93
2019-02-02T19:13:43.306Z,91.90
2019-02-02T19:16:12.274Z,88.63
2019-02-02T19:18:41.143Z,84.57
2019-02-02T19:21:10.064Z,89.30
2019-02-02T19:23:38.959Z,89.23
2019-02-02T19:26:09.991Z,89.37
2019-02-02T19:28:40.234Z,88.67
2019-02-02T19:31:09.246Z,92.30
2019-02-02T19:33:38.283Z,95.57
2019-02-02T19:36:07.127Z,90.40
2019-02-02T19:38:35.995Z,89.33
2019-02-02T19:41:04.824Z,88.57
2019-02-02T19:43:33.670Z,90.23
2019-02-02T19:46:02.719Z,83.83
2019-02-02T19:48:31.570Z,86.10
2019-02-02T19:51:00.375Z,85.33
2019-02-02T19:53:31.832Z,81.47
2019-02-02T19:56:00.006Z,84.13
2019-02-02T19:58:28.843Z,80.90
2019-02-02T20:00:58.044Z,81.57
2019-02-02T20:03:28.548Z,84.30
2019-02-02T20:05:58.279Z,79.87
2019-02-02T20:08:27.074Z,80.47
2019-02-02T20:10:56.579Z,83.63
2019-02-02T20:13:25.465Z,91.70
2019-02-02T20:15:54.531Z,89.70
2019-02-02T20:18:25.105Z,86.37
2019-02-02T20:20:54.215Z,93.03
2019-02-02T20:23:23.147Z,91.23
2019-02-02T20:25:52.149Z,90.87
2019-02-02T20:28:21.400Z,97.30
2019-02-02T20:30:50.377Z,96.20
2019-02-02T20:33:20.215Z,93.30
2019-02-02T20:35:51.826Z,93.33
2019-02-02T20:38:21.411Z,101.90
2019-02-02T20:40:50.366Z,101.13
2019-02-02T20:43:19.194Z,99.87
2019-02-02T20:45:48.123Z,100.17
2019-02-02T20:48:17.027Z,95.73
2019-02-02T20:50:46.621Z,98.57
2019-02-02T20:53:15.436Z,103.30
2019-02-02T20:55:45.146Z,96.63
2019-02-02T20:58:14.216Z,97.93
2019-02-02T21:00:43.355Z,96.60
2019-02-02T21:03:12.462Z,90.97
2019-02-02T21:05:51.927Z,104.73
2019-02-02T21:08:13.802Z,102.07
2019-02-02T21:10:44.640Z,97.80
2019-02-02T21:13:13.365Z,98.53
2019-02-02T21:15:42.288Z,99.37
2019-02-02T21:18:11.987Z,96.67
2019-02-02T21:20:41.025Z,101.37
2019-02-02T21:23:09.896Z,103.20
2019-02-02T21:25:39.241Z,98.03
2019-02-02T21:28:08.416Z,103.77
2019-02-02T21:30:38.010Z,106.30
2019-02-02T21:33:08.023Z,98.83
2019-02-02T21:35:36.870Z,108.60
2019-02-02T21:38:05.888Z,102.27
2019-02-02T21:40:35.134Z,105.00
2019-02-02T21:43:05.921Z,99.53
2019-02-02T21:45:35.437Z,110.50
2019-02-02T21:48:04.654Z,102.27
2019-02-02T21:50:33.565Z,103.37
2019-02-02T21:53:02.426Z,101.73
2019-02-02T21:55:31.450Z,106.37
2019-02-02T21:58:00.490Z,108.60
2019-02-02T22:00:30.467Z,103.43
2019-02-02T22:03:01.547Z,109.83
2019-02-02T22:05:30.486Z,117.80
2019-02-02T22:07:59.267Z,112.60
2019-02-02T22:10:28.450Z,112.80
2019-02-02T22:12:57.705Z,110.23
2019-02-02T22:15:26.725Z,118.07
2019-02-02T22:17:55.496Z,110.63
2019-02-02T22:20:24.433Z,111.47
2019-02-02T22:22:53.326Z,122.77
2019-02-02T22:25:23.351Z,116.73
2019-02-02T22:27:52.345Z,118.33
2019-02-02T22:30:22.483Z,112.23
2019-02-02T22:32:51.379Z,109.60
2019-02-02T22:35:20.253Z,115.23
2019-02-02T22:37:49.430Z,118.37
2019-02-02T22:40:19.663Z,117.13
2019-02-02T22:42:49.131Z,115.77
2019-02-02T22:45:18.567Z,112.70
2019-02-02T22:47:47.533Z,113.77
2019-02-02T22:50:17.740Z,119.97
2019-02-02T22:52:46.866Z,115.10
2019-02-02T22:55:15.933Z,114.83
2019-02-02T22:57:44.894Z,115.50
2019-02-02T23:00:58.111Z,117.53
2019-02-02T23:03:28.833Z,110.83
2019-02-02T23:06:04.053Z,110.93
2019-02-02T23:08:55.047Z,114.30
2019-02-02T23:11:55.376Z,117.73
2019-02-02T23:14:46.627Z,123.83
2019-02-02T23:17:15.628Z,115.43
2019-02-02T23:19:44.603Z,114.30
2019-02-02T23:22:13.595Z,119.20
2019-02-02T23:24:42.416Z,107.87
2019-02-02T23:27:11.292Z,116.03
2019-02-02T23:29:40.924Z,119.27
2019-02-02T23:32:10.748Z,111.50
2019-02-02T23:34:39.546Z,106.37
2019-02-02T23:37:08.576Z,99.60
2019-02-02T23:39:37.602Z,110.03
2019-02-02T23:42:06.482Z,104.13
2019-02-02T23:44:35.316Z,112.20
2019-02-02T23:47:04.150Z,115.13
2019-02-02T23:49:34.715Z,102.27
2019-02-02T23:52:04.326Z,109.37
2019-02-02T23:54:33.172Z,111.37
2019-02-02T23:57:01.979Z,103.27
2019-02-02T23:59:30.984Z,106.47
